Time;durP1;ratioP1;P1;durP2;ratioP2;P2;SDS_P1;SDS_P2;PMS_P1;PMS_P2;Temp;Humidity;BMP_temperature;BMP_pressure;BME280_temperature;BME280_humidity;BME280_pressure;Samples;Min_cycle;Max_cycle;Signal;HPM_P1;HPM_P2
2022/01/14 01:09:47;;;;;;;;;;;;;;;;;;;;;
2022/01/14 01:14:33;;;;;;;9.98;6.00;;;4.50;77.50;;;3.32;64.59;96324.06;4804224;29;20219;-95
2022/01/14 01:18:55;;;;;;;;;;;;;;;;;;;;;
2022/01/14 01:23:10;;;;;;;;;;;;;;;;;;;;;
2022/01/14 01:27:16;;;;;;;;;;;;;;;;;;;;;
2022/01/14 01:42:27;;;;;;;12.20;6.45;;;4.30;77.30;;;3.06;65.03;96323.34;4733209;30;20211;-95
2022/01/14 01:45:25;;;;;;;11.02;6.22;;;4.30;77.30;;;2.96;64.60;96302.44;4749616;29;20244;-94
2022/01/14 01:48:15;;;;;;;9.88;6.55;;;4.20;77.10;;;2.94;64.19;96301.75;4776563;29;20209;-94
2022/01/14 01:50:57;;;;;;;14.30;7.28;;;4.20;77.20;;;2.90;65.22;96295.09;4790914;29;20228;-94
2022/01/14 01:53:59;;;;;;;11.25;5.63;;;4.20;77.30;;;2.90;64.26;96289.09;4728257;30;20267;-92
2022/01/14 01:56:49;;;;;;;11.73;6.30;;;4.10;77.20;;;2.85;64.49;96284.25;4704725;30;20236;-93
2022/01/14 01:59:47;;;;;;;10.75;6.18;;;4.10;77.20;;;2.77;64.43;96279.63;4699566;30;20217;-93
2022/01/14 02:02:47;;;;;;;10.75;6.13;;;4.10;77.30;;;2.81;64.92;96288.00;4723752;30;20386;-93
2022/01/14 02:05:56;;;;;;;11.35;6.50;;;4.00;77.20;;;2.78;64.45;96283.03;4716806;30;20327;-94
2022/01/14 02:08:37;;;;;;;10.15;6.05;;;4.00;77.40;;;2.72;64.29;96276.50;4738048;30;20223;-91
2022/01/14 02:11:16;;;;;;;8.88;5.38;;;4.00;77.30;;;2.71;64.60;96269.66;4780195;29;20241;-92
2022/01/14 02:13:49;;;;;;;12.40;6.68;;;3.90;77.20;;;2.66;64.63;96266.59;4862757;29;20246;-93
2022/01/14 02:16:59;;;;;;;11.43;5.88;;;3.90;77.30;;;2.68;64.67;96280.25;4864432;29;20229;-93
2022/01/14 02:22:08;;;;;;;10.25;5.35;;;4.00;77.30;;;2.58;64.46;96259.38;4880642;29;20237;-93
2022/01/14 02:22:56;;;;;;;9.13;5.72;;;3.90;77.20;;;2.53;64.31;96262.28;4885232;29;20325;-93
2022/01/14 02:25:32;;;;;;;9.65;5.43;;;3.80;77.20;;;2.60;64.20;96282.56;4865359;29;20230;-93
2022/01/14 02:28:06;;;;;;;7.93;4.97;;;3.80;77.20;;;2.48;64.26;96268.72;4861870;29;20253;-93
2022/01/14 02:30:41;;;;;;;8.50;5.10;;;3.80;77.30;;;2.51;64.30;96265.91;4850810;29;20713;-93
2022/01/14 02:33:13;;;;;;;9.45;5.15;;;3.70;77.20;;;2.46;63.99;96266.22;4864469;29;20210;-93
2022/01/14 02:35:46;;;;;;;8.40;5.10;;;3.70;77.20;;;2.43;64.09;96260.44;4864566;29;20229;-94
2022/01/14 02:38:18;;;;;;;8.25;5.07;;;3.60;77.30;;;2.41;64.08;96273.50;4861773;29;20207;-93
2022/01/14 02:40:48;;;;;;;10.35;5.57;;;3.60;77.20;;;2.44;64.28;96264.69;4861869;29;20697;-93
2022/01/14 02:43:18;;;;;;;7.88;5.05;;;3.60;77.40;;;2.41;64.33;96260.56;4861674;29;20292;-93
2022/01/14 02:45:52;;;;;;;10.00;5.10;;;3.60;77.40;;;2.37;64.27;96249.59;4849033;29;20235;-93
2022/01/14 02:48:29;;;;;;;8.73;4.65;;;3.50;77.30;;;2.29;64.20;96244.09;4891249;29;20210;-92
2022/01/14 02:51:08;;;;;;;8.80;4.85;;;3.60;77.50;;;2.30;64.20;96242.38;4849847;29;20604;-93
2022/01/14 02:56:20;;;;;;;8.57;5.13;;;3.50;77.40;;;2.25;63.97;96234.91;4878952;29;20716;-93
2022/01/14 02:58:53;;;;;;;9.05;5.05;;;3.50;77.40;;;2.25;64.14;96234.91;4879350;29;20210;-93
2022/01/14 03:01:23;;;;;;;9.48;4.78;;;3.50;77.30;;;2.27;64.21;96230.47;4864203;29;20242;-93
2022/01/14 03:03:59;;;;;;;9.85;5.10;;;3.40;77.30;;;2.20;64.20;96224.06;4863088;29;20575;-93
2022/01/14 03:06:28;;;;;;;8.15;5.22;;;3.40;77.50;;;2.19;64.18;96218.03;4845434;29;20234;-93
2022/01/14 03:08:58;;;;;;;8.82;5.43;;;3.40;77.40;;;2.26;64.81;96225.38;4862737;29;20213;-92
2022/01/14 03:11:52;;;;;;;9.50;5.22;;;3.40;77.60;;;2.24;64.54;96215.94;4865998;29;20655;-92
2022/01/14 03:14:24;;;;;;;10.35;5.60;;;3.40;77.90;;;2.31;65.08;96216.38;4882742;29;20206;-93
2022/01/14 03:16:58;;;;;;;9.30;4.95;;;3.40;77.90;;;2.39;64.75;96221.84;4883520;29;20209;-92
2022/01/14 03:19:27;;;;;;;7.97;5.10;;;3.40;78.70;;;2.39;64.78;96221.84;4875650;29;20745;-92
2022/01/14 03:22:07;;;;;;;9.82;5.45;;;3.50;78.10;;;2.45;65.19;96217.16;4862442;29;20220;-92
2022/01/14 03:27:05;;;;;;;8.98;5.03;;;3.50;78.20;;;2.51;65.44;96214.94;4879226;29;20206;-92
2022/01/14 03:29:55;;;;;;;10.35;5.15;;;3.60;78.40;;;2.61;66.21;96214.28;4864403;29;20214;-93
2022/01/14 03:32:32;;;;;;;9.60;5.35;;;3.60;78.70;;;2.70;67.24;96209.25;4849296;29;20232;-92
2022/01/14 03:35:02;;;;;;;8.07;4.95;;;3.70;79.30;;;2.81;67.01;96210.28;4861882;29;20230;-94
2022/01/14 03:37:33;;;;;;;9.23;5.53;;;3.70;79.30;;;2.91;66.73;96207.84;4863010;29;20217;-93
2022/01/14 03:40:03;;;;;;;9.25;5.20;;;3.80;79.40;;;3.01;66.13;96213.97;4866279;29;20236;-93
2022/01/14 03:42:35;;;;;;;7.05;4.20;;;3.90;79.20;;;3.02;65.74;96206.09;4868464;29;20214;-93
2022/01/14 03:45:45;;;;;;;;;;;;;;;;;;;;;
2022/01/14 03:48:22;;;;;;;7.75;4.47;;;4.00;79.10;;;3.04;65.39;96212.00;4865556;29;20228;-93
2022/01/14 03:51:12;;;;;;;9.52;4.97;;;4.00;78.60;;;2.95;65.61;96197.09;4849233;29;20258;-94
2022/01/14 03:53:42;;;;;;;11.20;5.63;;;4.00;78.70;;;2.94;65.44;96192.88;4859536;29;20214;-93
2022/01/14 03:56:12;;;;;;;9.27;5.55;;;4.10;78.60;;;2.99;65.81;96192.53;4859990;29;20231;-93
2022/01/14 03:58:41;;;;;;;9.70;6.57;;;4.10;78.60;;;2.91;66.00;96180.16;4864011;29;20217;-93
2022/01/14 04:01:23;;;;;;;8.10;5.22;;;4.10;78.60;;;2.90;65.69;96183.66;4861042;29;20234;-93
2022/01/14 04:03:52;;;;;;;9.02;5.47;;;4.10;78.50;;;2.90;65.40;96188.03;4876565;29;20230;-91
2022/01/14 04:06:27;;;;;;;8.18;5.03;;;4.00;78.30;;;2.82;65.31;96176.47;4875368;29;20224;-93
2022/01/14 04:09:20;;;;;;;9.30;5.30;;;4.00;78.40;;;2.83;65.67;96177.28;4867222;29;20581;-92
2022/01/14 04:12:02;;;;;;;;;;;;;;;;;;;;;
2022/01/14 04:17:44;;;;;;;6.38;4.38;;;4.00;78.60;;;2.82;66.92;96166.09;4876234;29;20214;-92
2022/01/14 04:20:45;;;;;;;7.15;4.20;;;4.00;78.90;;;3.00;66.40;96182.06;4869742;29;20239;-92
2022/01/14 04:23:35;;;;;;;6.80;4.07;;;4.00;79.30;;;3.06;66.26;96185.97;4852524;29;20237;-90
2022/01/14 04:26:38;;;;;;;5.22;3.75;;;4.00;79.20;;;3.04;66.73;96167.13;4853538;29;20250;-92
2022/01/14 04:29:28;;;;;;;5.78;3.85;;;4.10;79.40;;;3.17;66.78;96186.00;4850523;29;20228;-92
2022/01/14 04:32:18;;;;;;;5.70;3.50;;;4.10;79.40;;;3.28;67.25;96180.00;4864694;29;20205;-91
2022/01/14 04:35:22;;;;;;;5.45;3.58;;;4.20;79.70;;;3.25;66.86;96159.50;4851911;29;20237;-92
2022/01/14 04:38:27;;;;;;;6.05;3.40;;;4.20;79.60;;;3.35;66.59;96170.00;4864109;29;20691;-92
2022/01/14 04:41:09;;;;;;;6.50;4.03;;;4.30;79.80;;;3.39;67.15;96165.41;4871147;29;20340;-93
2022/01/14 04:44:01;;;;;;;5.55;3.60;;;4.40;79.80;;;3.51;67.33;96174.84;4873618;29;20233;-92
2022/01/14 04:47:12;;;;;;;5.57;3.58;;;4.50;80.00;;;3.57;67.61;96163.19;4861699;29;20236;-90
2022/01/14 04:49:50;;;;;;;5.28;3.60;;;4.40;80.00;;;3.63;67.63;96173.91;4865556;29;20218;-92
2022/01/14 04:52:30;;;;;;;5.28;3.47;;;4.60;80.10;;;3.69;67.50;96157.06;4864280;29;20210;-91
2022/01/14 04:55:32;;;;;;;;;;;;;;;;;;;;;
2022/01/14 05:03:01;;;;;;;6.18;3.90;;;4.70;80.00;;;3.65;67.04;96153.88;4769028;29;20235;-92
2022/01/14 05:05:40;;;;;;;6.03;4.07;;;4.70;79.70;;;3.64;67.54;96136.66;4787756;29;20236;-93
2022/01/14 05:08:35;;;;;;;;;;;;;;;;;;;;;
2022/01/14 05:11:41;;;;;;;5.63;3.70;;;4.70;79.90;;;3.72;67.75;96162.00;4791989;29;20249;-92
2022/01/14 05:14:09;;;;;;;5.43;3.83;;;4.80;79.90;;;3.73;67.43;96153.25;4773974;29;20583;-93
2022/01/14 05:16:44;;;;;;;5.25;3.70;;;4.80;79.90;;;3.80;67.49;96166.63;4823425;29;20240;-92
2022/01/14 05:19:43;;;;;;;;;;;;;;;;;;;;;
2022/01/14 05:22:41;;;;;;;4.68;3.30;;;4.80;80.00;;;3.83;67.44;96161.16;4869231;29;20211;-91
2022/01/14 05:25:14;;;;;;;6.50;3.35;;;4.90;80.00;;;3.78;67.70;96153.72;4861598;29;20878;-91
2022/01/14 05:27:43;;;;;;;5.50;3.60;;;4.80;79.90;;;3.83;67.65;96161.16;4862412;29;20234;-91
2022/01/14 05:30:16;;;;;;;5.15;3.25;;;4.90;80.00;;;3.80;67.75;96151.84;4847825;29;20705;-92
2022/01/14 05:33:02;;;;;;;5.65;3.60;;;4.90;80.10;;;3.85;67.78;96162.69;4865072;29;20217;-92
2022/01/14 05:35:37;;;;;;;5.38;3.72;;;4.90;80.10;;;3.89;67.23;96168.47;4850024;29;20326;-93
2022/01/14 05:38:14;;;;;;;4.60;3.33;;;4.90;80.80;;;3.92;66.94;96170.00;4852193;29;20206;-92
2022/01/14 05:40:48;;;;;;;5.97;3.60;;;4.90;80.00;;;3.91;67.07;96168.38;4865884;29;20234;-91
2022/01/14 05:43:17;;;;;;;5.10;3.38;;;4.90;79.80;;;3.91;67.06;96174.38;4867816;29;20206;-94
2022/01/14 05:46:05;;;;;;;6.00;3.65;;;4.90;79.70;;;3.81;66.87;96153.50;4884414;29;20357;-94
2022/01/14 05:48:52;;;;;;;5.50;3.45;;;4.80;79.70;;;3.81;66.75;96168.25;4879327;29;20213;-92
2022/01/14 05:51:27;;;;;;;6.28;3.85;;;4.90;79.60;;;3.80;67.86;96159.63;4866094;29;20234;-92
2022/01/14 05:54:00;;;;;;;5.05;3.50;;;4.90;79.80;;;3.83;67.76;96162.00;4884718;29;20201;-89
2022/01/14 05:56:36;;;;;;;4.68;3.15;;;4.90;79.90;;;3.77;67.59;96154.69;4899736;29;20320;-92
2022/01/14 05:59:11;;;;;;;6.15;3.50;;;4.90;80.10;;;3.83;67.67;96161.16;4863095;29;20627;-90
2022/01/14 06:01:50;;;;;;;5.30;3.47;;;4.90;80.00;;;3.78;67.01;96150.31;4876376;29;20223;-94
2022/01/14 06:04:34;;;;;;;5.88;3.50;;;4.90;79.90;;;3.78;67.24;96152.91;4868836;29;20232;-93
2022/01/14 06:07:26;;;;;;;5.80;3.47;;;4.90;79.90;;;3.82;67.33;96160.34;4880057;29;20218;-92
2022/01/14 06:09:54;;;;;;;5.38;3.35;;;4.80;80.00;;;3.79;67.18;96150.19;4878069;29;20254;-92
2022/01/14 06:12:36;;;;;;;4.18;3.00;;;4.80;79.80;;;3.78;67.08;96150.31;4865878;29;20297;-92
2022/01/14 06:15:16;;;;;;;4.72;3.20;;;4.80;79.90;;;3.78;67.53;96153.72;4884386;29;20225;-93
2022/01/14 06:17:52;;;;;;;4.50;3.15;;;4.80;80.00;;;3.76;67.68;96136.63;4851896;29;20221;-92
2022/01/14 06:20:27;;;;;;;3.67;2.70;;;4.80;80.00;;;3.80;67.40;96144.06;4862082;29;20238;-92
2022/01/14 06:23:12;;;;;;;3.67;2.67;;;4.90;80.30;;;3.85;67.59;96131.56;4881647;29;20213;-94
2022/01/14 06:25:47;;;;;;;4.25;2.80;;;4.90;80.30;;;3.90;68.15;96131.19;4869382;29;20304;-92
2022/01/14 06:28:23;;;;;;;5.50;3.15;;;4.90;80.50;;;3.97;67.88;96134.97;4853257;29;20576;-92
2022/01/14 06:31:14;;;;;;;2.90;2.53;;;5.00;80.60;;;3.99;67.44;96134.84;4850479;29;20238;-92
2022/01/14 06:34:16;;;;;;;3.20;2.40;;;4.90;80.50;;;4.03;67.50;96135.41;4872630;29;20282;-94
2022/01/14 06:36:55;;;;;;;3.63;2.83;;;5.00;80.40;;;4.06;67.64;96135.19;4861210;29;20218;-92
2022/01/14 06:40:33;;;;;;;;;;;;;;;;;;;;;
2022/01/14 06:43:58;;;;;;;5.55;2.97;;;5.10;80.60;;;4.22;67.79;96148.59;4829767;29;20215;-93
2022/01/14 06:46:59;;;;;;;5.82;3.10;;;5.20;80.80;;;4.33;67.60;96158.97;4808375;29;20238;-91
2022/01/14 06:49:46;;;;;;;5.40;3.42;;;5.20;80.80;;;4.38;67.65;96150.81;4819987;29;20294;-91
2022/01/14 06:53:12;;;;;;;;;;;;;;;;;;;;;
2022/01/14 06:56:40;;;;;;;4.57;3.00;;;5.30;80.80;;;4.43;67.77;96146.09;4875101;29;20221;-93
2022/01/14 07:00:57;;;;;;;4.65;3.33;;;5.40;80.90;;;4.49;67.57;96132.59;4861907;29;20241;-94
2022/01/14 07:05:01;;;;;;;4.82;3.30;;;5.40;80.80;;;4.53;67.20;96130.59;4828639;29;20227;-94
2022/01/14 07:07:46;;;;;;;5.50;3.03;;;5.50;80.40;;;4.53;67.30;96130.59;4816689;29;20216;-93
2022/01/14 07:10:27;;;;;;;4.18;3.10;;;5.60;80.30;;;4.54;67.06;96131.38;4841520;29;20231;-93
2022/01/14 07:13:48;;;;;;;4.20;3.08;;;5.60;80.20;;;4.54;67.29;96129.63;4769128;30;20226;-94
2022/01/14 07:16:36;;;;;;;;;;;;;;;;;;;;;
2022/01/14 07:19:29;;;;;;;5.88;3.17;;;5.60;80.20;;;4.58;66.44;96119.81;4768858;30;20316;-95
2022/01/14 07:21:59;;;;;;;3.95;2.95;;;5.60;80.10;;;4.63;67.20;96126.28;4811967;29;20226;-94
2022/01/14 07:24:39;;;;;;;5.18;3.20;;;5.60;80.10;;;4.67;66.65;96139.03;4826448;29;20239;-93
2022/01/14 07:27:28;;;;;;;4.68;2.67;;;5.60;80.00;;;4.63;66.71;96136.66;4838102;29;20214;-94
2022/01/14 07:29:56;;;;;;;5.80;2.90;;;5.60;80.00;;;4.63;66.29;96123.69;4813824;29;20227;-93
2022/01/14 07:32:25;;;;;;;5.20;3.20;;;5.60;79.90;;;4.63;66.61;96128.06;4826472;29;20260;-93
2022/01/14 07:34:54;;;;;;;5.05;3.08;;;5.60;79.90;;;4.60;66.69;96136.09;4838047;29;20288;-91
2022/01/14 07:37:22;;;;;;;3.08;2.50;;;5.60;80.00;;;4.63;66.85;96118.47;4823041;29;20652;-91
2022/01/14 07:39:50;;;;;;;4.22;2.78;;;5.60;80.00;;;4.64;66.63;96129.72;4838731;29;20236;-90
2022/01/14 07:42:18;;;;;;;3.72;2.70;;;5.60;79.90;;;4.64;66.60;96121.91;4825667;29;20231;-91
2022/01/14 07:44:50;;;;;;;4.32;3.03;;;5.70;80.00;;;4.66;66.57;96135.59;4840556;29;20798;-91
2022/01/14 07:47:19;;;;;;;5.30;2.85;;;5.60;79.90;;;4.71;66.61;96127.44;4837860;29;20215;-92
2022/01/14 07:49:48;;;;;;;4.53;3.05;;;5.70;80.00;;;4.78;66.30;96154.56;4816645;29;20325;-93
2022/01/14 07:52:15;;;;;;;5.55;3.03;;;5.70;80.00;;;4.74;66.44;96140.19;4806506;29;20219;-91
2022/01/14 07:54:43;;;;;;;4.50;2.90;;;5.70;80.00;;;4.78;66.59;96142.38;4797530;29;20298;-91
2022/01/14 07:57:11;;;;;;;4.80;3.35;;;5.80;80.10;;;4.83;66.17;96149.00;4839920;29;20313;-91
2022/01/14 08:00:07;;;;;;;3.80;2.60;;;5.70;80.00;;;4.84;66.22;96146.28;4879046;29;20280;-94
2022/01/14 08:02:35;;;;;;;3.47;2.70;;;5.70;79.90;;;4.83;66.06;96136.81;4876127;29;20205;-91
2022/01/14 08:05:04;;;;;;;4.70;3.08;;;5.80;80.00;;;4.88;66.17;96139.88;4864080;29;20238;-92
2022/01/14 08:07:43;;;;;;;4.88;3.10;;;5.80;79.90;;;4.92;66.07;96146.47;4866051;29;20202;-92
2022/01/14 08:10:15;;;;;;;3.78;2.72;;;5.80;79.90;;;5.00;65.76;96147.63;4866723;29;20229;-91
2022/01/14 08:12:44;;;;;;;3.83;3.10;;;5.90;79.90;;;5.01;65.74;96147.47;4882469;29;20249;-90
2022/01/14 08:15:20;;;;;;;4.72;2.72;;;5.90;79.80;;;5.07;65.73;96148.75;4883109;29;20747;-92
2022/01/14 08:17:55;;;;;;;3.70;2.63;;;5.90;79.80;;;5.14;65.45;96149.91;4881430;29;20347;-90
2022/01/14 08:20:24;;;;;;;4.15;3.25;;;6.00;79.80;;;5.19;65.23;96141.69;4872157;29;20225;-92
2022/01/14 08:23:40;;;;;;;3.53;2.75;;;6.00;79.80;;;5.21;65.99;96139.81;4855295;29;20222;-90
2022/01/14 08:26:25;;;;;;;4.78;3.10;;;6.00;79.70;;;5.36;65.21;96151.53;4863348;23;20235;-94
2022/01/14 08:28:53;;;;;;;4.05;2.90;;;6.10;79.80;;;5.41;65.04;96149.38;4860257;29;20608;-92
2022/01/14 08:31:28;;;;;;;3.85;2.97;;;6.10;79.70;;;5.44;64.63;96146.53;4833723;29;20231;-92
2022/01/14 08:37:05;;;;;;;4.57;2.72;;;6.30;79.50;;;5.58;64.49;96141.94;4880022;29;20235;-85
2022/01/14 08:39:33;;;;;;;4.05;2.63;;;6.30;79.50;;;5.71;64.41;96142.53;4865064;29;20209;-83
2022/01/14 08:42:02;;;;;;;3.95;2.83;;;6.40;79.40;;;5.76;64.46;96147.31;4862913;29;20209;-85
2022/01/14 08:44:30;;;;;;;2.97;2.63;;;6.40;79.30;;;5.81;64.20;96139.97;4847936;29;20238;-84
2022/01/14 08:46:58;;;;;;;3.92;2.83;;;6.50;79.20;;;5.89;64.25;96136.69;4847884;29;20619;-84
2022/01/14 08:49:25;;;;;;;3.40;2.70;;;6.50;79.20;;;5.92;64.00;96131.25;4848981;29;20305;-85
2022/01/14 08:51:53;;;;;;;4.43;2.75;;;6.60;79.10;;;5.98;64.03;96135.06;4865751;29;20288;-84
2022/01/14 08:54:20;;;;;;;3.70;2.65;;;6.60;79.10;;;6.02;63.52;96134.72;4877657;29;20297;-83
2022/01/14 08:56:47;;;;;;;3.85;2.50;;;6.70;79.00;;;6.06;63.54;96123.06;4878790;29;20240;-84
2022/01/14 08:59:17;;;;;;;4.05;3.13;;;6.70;78.90;;;6.17;63.21;96135.16;4866849;29;20201;-84
2022/01/14 09:01:44;;;;;;;4.88;3.20;;;6.80;78.70;;;6.22;63.04;96134.75;4880533;29;20228;-83
2022/01/14 09:04:11;;;;;;;5.25;3.30;;;6.90;78.80;;;6.29;62.99;96135.06;4886824;29;20208;-83
2022/01/14 09:06:39;;;;;;;4.57;3.15;;;6.90;78.60;;;6.34;62.52;96138.06;4884546;29;20268;-84
2022/01/14 09:09:06;;;;;;;4.63;2.97;;;6.90;78.40;;;6.37;62.47;96132.56;4865394;29;20265;-84
2022/01/14 09:11:35;;;;;;;5.25;3.05;;;7.00;78.40;;;6.45;62.42;96124.09;4850968;29;20229;-84
2022/01/14 09:14:02;;;;;;;3.65;2.70;;;7.00;78.20;;;6.50;62.04;96125.31;4853279;29;20209;-84
2022/01/14 09:16:30;;;;;;;3.97;2.90;;;7.00;78.00;;;6.50;61.69;96111.47;4869277;29;20233;-83
2022/01/14 09:18:58;;;;;;;3.58;3.00;;;7.10;78.00;;;6.61;61.68;96126.97;4881176;29;20204;-85
2022/01/14 09:21:26;;;;;;;3.17;2.53;;;7.10;77.90;;;6.67;61.49;96120.41;4870035;29;20658;-84
2022/01/14 09:24:05;;;;;;;4.00;2.83;;;7.20;77.80;;;6.70;61.10;96120.09;4868578;29;20296;-84
2022/01/14 09:26:36;;;;;;;3.95;2.80;;;7.30;77.60;;;6.74;61.03;96126.72;4884139;29;20338;-83
2022/01/14 09:29:06;;;;;;;5.43;2.97;;;7.40;77.50;;;6.78;61.02;96115.03;4864940;29;20205;-85
2022/01/14 09:31:34;;;;;;;5.55;3.95;;;7.40;77.40;;;6.80;61.02;96113.13;4874279;29;20230;-84
2022/01/14 09:34:02;;;;;;;4.63;3.35;;;7.40;77.40;;;6.88;60.56;96115.03;4869138;29;20206;-85
2022/01/14 09:36:30;;;;;;;4.57;3.10;;;7.50;77.20;;;6.92;60.93;96119.03;4883884;29;20229;-85
2022/01/14 09:38:59;;;;;;;4.70;3.20;;;7.50;77.10;;;6.95;59.85;96125.75;4884371;29;20305;-85
2022/01/14 09:41:26;;;;;;;3.58;2.78;;;7.60;76.90;;;6.99;59.26;96114.88;4853872;29;20328;-85
2022/01/14 09:43:55;;;;;;;4.57;3.08;;;7.60;76.50;;;7.00;59.62;96103.47;4883817;29;20225;-83
2022/01/14 09:46:22;;;;;;;4.45;2.83;;;7.60;76.60;;;7.08;59.49;96099.34;4883243;29;20267;-85
2022/01/14 09:48:50;;;;;;;4.43;3.03;;;7.70;76.60;;;7.13;59.43;96104.97;4882805;29;20221;-86
2022/01/14 09:51:18;;;;;;;4.57;3.17;;;7.70;76.40;;;7.20;59.46;96100.81;4875875;29;20428;-85
2022/01/14 09:53:46;;;;;;;4.22;2.75;;;7.70;76.30;;;7.23;59.03;96092.72;4869211;29;20218;-85
2022/01/14 09:56:20;;;;;;;5.70;4.25;;;7.80;77.10;;;7.31;59.28;96079.81;4849234;29;20226;-84
2022/01/14 09:58:49;;;;;;;4.35;2.67;;;7.80;76.20;;;7.37;58.55;96076.63;4865076;29;20210;-85
2022/01/14 10:01:22;;;;;;;4.45;3.40;;;7.90;76.00;;;7.42;58.32;96086.63;4865552;29;20249;-86
2022/01/14 10:04:04;;;;;;;5.45;3.53;;;7.90;75.80;;;7.47;58.85;96071.34;4868137;29;20201;-86
2022/01/14 10:06:52;;;;;;;7.63;5.18;;;8.00;75.90;;;7.49;58.74;96056.34;4866525;29;20245;-85
2022/01/14 10:09:36;;;;;;;4.38;3.22;;;8.10;75.70;;;7.53;58.13;96062.94;4883685;29;20333;-86
2022/01/14 10:12:17;;;;;;;4.07;3.10;;;8.10;75.30;;;7.56;57.69;96059.22;4882805;29;20212;-86
2022/01/14 10:14:56;;;;;;;3.97;2.92;;;8.20;75.40;;;7.67;57.38;96063.44;4880059;29;20274;-84
2022/01/14 10:17:26;;;;;;;5.03;2.80;;;8.20;75.00;;;7.72;57.61;96066.44;4848681;29;20205;-85
2022/01/14 10:19:53;;;;;;;4.47;2.83;;;8.30;75.00;;;7.78;57.30;96055.41;4863672;29;20266;-86
2022/01/14 10:22:30;;;;;;;3.78;2.75;;;8.30;75.10;;;7.82;57.29;96056.78;4879539;29;20210;-88
2022/01/14 10:25:06;;;;;;;5.68;3.70;;;8.30;74.70;;;7.90;56.38;96057.81;4863408;29;20288;-85
2022/01/14 10:27:36;;;;;;;6.63;3.95;;;8.40;74.80;;;7.94;56.44;96059.97;4864457;29;20206;-85
2022/01/14 10:30:33;;;;;;;5.18;3.60;;;8.50;74.80;;;7.99;56.33;96056.94;4864684;29;20222;-86
2022/01/14 10:33:03;;;;;;;4.60;2.95;;;8.50;74.80;;;8.06;55.87;96042.31;4863605;29;20203;-86
2022/01/14 10:35:36;;;;;;;5.05;3.08;;;8.60;74.70;;;8.04;55.42;96036.41;4876588;29;20233;-87
2022/01/14 10:38:06;;;;;;;4.43;3.00;;;8.60;73.90;;;8.18;55.68;96050.78;4883153;29;20209;-85
2022/01/14 10:40:40;;;;;;;3.90;3.10;;;8.70;74.20;;;8.27;56.57;96043.81;4883111;29;20695;-85
2022/01/14 10:43:11;;;;;;;5.20;2.97;;;8.70;74.60;;;8.33;56.14;96035.38;4882965;29;20598;-85
2022/01/14 10:45:55;;;;;;;3.35;2.70;;;8.80;74.50;;;8.37;56.07;96036.72;4867075;29;20236;-85
2022/01/14 10:48:29;;;;;;;4.55;3.22;;;8.80;74.40;;;8.44;55.61;96048.22;4879274;29;20210;-84
2022/01/14 10:51:03;;;;;;;7.22;3.40;;;8.90;73.90;;;8.49;55.98;96034.72;4880062;29;20229;-84
2022/01/14 10:53:53;;;;;;;5.20;3.05;;;8.90;74.80;;;8.53;56.08;96030.81;4882564;29;20209;-85
2022/01/14 10:56:25;;;;;;;4.30;3.10;;;9.00;74.30;;;8.60;55.66;96020.59;4849670;29;20738;-85
2022/01/14 10:58:59;;;;;;;6.50;3.42;;;9.10;74.00;;;8.62;55.85;96013.44;4882518;29;20215;-84
2022/01/14 11:01:28;;;;;;;4.38;3.10;;;9.10;73.70;;;8.65;55.13;96003.47;4867524;29;20327;-84
2022/01/14 11:04:01;;;;;;;4.22;3.15;;;9.20;73.60;;;8.70;55.28;95994.34;4864285;29;20237;-84
2022/01/14 11:06:33;;;;;;;4.45;3.05;;;9.20;73.80;;;8.75;55.63;95992.94;4854875;29;20252;-86
2022/01/14 11:09:11;;;;;;;5.28;3.60;;;9.20;73.80;;;8.84;55.37;95995.56;4848381;29;20214;-84
2022/01/14 11:11:41;;;;;;;5.43;3.55;;;9.30;73.50;;;8.86;54.39;95991.84;4850443;29;20229;-84
2022/01/14 11:14:09;;;;;;;5.05;3.17;;;9.40;73.20;;;8.90;54.55;95972.25;4863308;29;20237;-85
2022/01/14 11:16:38;;;;;;;4.32;3.00;;;9.40;73.30;;;9.00;55.19;95979.19;4864000;29;20242;-85
2022/01/14 11:19:08;;;;;;;3.97;2.90;;;9.50;73.50;;;9.03;54.27;95971.00;4857567;29;20544;-84
2022/01/14 11:24:31;;;;;;;3.78;2.83;;;9.50;72.90;;;9.13;54.10;95959.44;4877935;29;20266;-84
2022/01/14 11:27:07;;;;;;;3.70;2.60;;;9.60;72.60;;;9.22;53.45;95951.63;4866263;29;20235;-86
2022/01/14 11:29:40;;;;;;;3.42;2.53;;;9.60;72.30;;;9.33;53.85;95948.72;4863460;29;20241;-86
2022/01/14 11:32:08;;;;;;;3.08;2.28;;;9.70;72.40;;;9.39;51.77;95965.59;4881784;29;20209;-84
2022/01/14 11:34:42;;;;;;;3.40;2.40;;;9.80;71.90;;;9.44;51.22;95940.56;4863503;29;20575;-83
2022/01/14 11:37:31;;;;;;;3.22;2.25;;;9.80;71.20;;;9.59;51.82;95940.78;4864644;29;20209;-85
2022/01/14 11:40:04;;;;;;;3.15;2.28;;;10.00;70.00;;;9.64;50.73;95924.56;4863521;29;20221;-86
2022/01/14 11:42:59;;;;;;;2.63;2.20;;;10.00;69.50;;;9.82;50.83;95924.44;4852357;29;20209;-86
2022/01/14 11:45:45;;;;;;;2.70;2.10;;;10.10;70.10;;;10.00;51.42;95920.88;4852396;29;20237;-86
2022/01/14 11:48:37;;;;;;;3.08;2.30;;;10.30;69.60;;;10.10;50.82;95927.56;4893898;29;20617;-85
2022/01/14 11:51:15;;;;;;;2.47;2.15;;;10.40;69.10;;;10.19;51.31;95910.06;4874063;29;20228;-86
2022/01/14 11:54:06;;;;;;;2.00;1.60;;;10.50;69.10;;;10.39;51.80;95913.19;4882120;29;20209;-87
2022/01/14 11:56:35;;;;;;;4.10;1.88;;;10.60;69.40;;;10.54;51.83;95905.44;4866711;29;20228;-87
2022/01/14 11:59:18;;;;;;;2.00;1.67;;;10.80;69.80;;;10.69;52.22;95910.84;4896548;29;20694;-86
2022/01/14 12:01:51;;;;;;;2.53;2.00;;;11.00;69.60;;;10.79;51.24;95891.44;4893093;29;20237;-86
2022/01/14 12:04:20;;;;;;;2.35;1.90;;;11.00;69.30;;;10.92;50.50;95881.25;4855571;29;20265;-85
2022/01/14 12:06:50;;;;;;;2.70;1.80;;;11.20;69.00;;;11.09;50.46;95879.38;4862847;29;20666;-86
2022/01/14 12:09:21;;;;;;;2.72;1.98;;;11.30;68.70;;;11.19;48.29;95866.88;4895363;29;20204;-85
2022/01/14 12:12:23;;;;;;;2.47;1.90;;;11.50;67.80;;;11.29;47.82;95856.16;4849488;29;20229;-86
2022/01/14 12:14:56;;;;;;;2.13;1.92;;;11.50;67.30;;;11.39;48.71;95842.78;4876340;29;20228;-87
2022/01/14 12:17:37;;;;;;;2.03;1.63;;;11.70;67.80;;;11.53;47.64;95851.72;4877729;29;20213;-85
2022/01/14 12:20:15;;;;;;;2.10;1.70;;;11.70;66.50;;;11.57;47.36;95829.38;4865039;29;20616;-86
2022/01/14 12:23:09;;;;;;;2.35;1.80;;;11.90;66.20;;;11.75;47.92;95829.06;4861963;29;20205;-84
2022/01/14 12:25:42;;;;;;;2.97;1.90;;;12.10;67.10;;;11.78;45.05;95814.75;4862086;29;20282;-87
2022/01/14 12:28:22;;;;;;;2.85;1.90;;;12.10;65.40;;;11.90;45.95;95818.59;4857507;29;20209;-85
2022/01/14 12:31:01;;;;;;;2.35;1.80;;;12.20;65.70;;;12.02;46.20;95811.13;4865069;29;20228;-86
2022/01/14 12:33:46;;;;;;;2.33;2.03;;;12.30;66.00;;;12.15;47.13;95798.19;4863277;29;20296;-86
2022/01/14 12:36:19;;;;;;;2.83;2.15;;;12.40;66.20;;;12.25;44.93;95805.00;4862408;29;20250;-85
2022/01/14 12:38:48;;;;;;;3.75;2.42;;;12.50;65.60;;;12.29;45.40;95801.00;4866184;29;20707;-85
2022/01/14 12:41:17;;;;;;;2.30;2.10;;;12.50;65.60;;;12.35;44.32;95804.72;4878728;29;20328;-84
2022/01/14 12:43:56;;;;;;;2.33;2.00;;;12.60;65.10;;;12.38;43.36;95814.88;4866355;29;20223;-85
2022/01/14 12:49:16;;;;;;;3.17;2.47;;;12.80;64.10;;;12.41;43.15;95822.44;4882086;29;20205;-85
2022/01/14 12:51:44;;;;;;;3.50;2.60;;;12.80;63.60;;;12.44;42.92;95835.22;4881063;29;20236;-83
2022/01/14 12:54:12;;;;;;;3.45;2.30;;;12.80;63.60;;;12.42;43.07;95805.66;4862446;29;20209;-88
2022/01/14 12:56:40;;;;;;;2.20;1.92;;;12.90;63.60;;;12.57;44.17;95821.44;4868485;29;20240;-85
2022/01/14 12:59:10;;;;;;;2.72;2.22;;;12.90;64.30;;;12.70;44.77;95810.28;4853746;29;20204;-85
2022/01/14 13:01:51;;;;;;;3.20;2.50;;;13.00;64.40;;;12.76;44.23;95797.19;4883070;29;20224;-86
2022/01/14 13:04:22;;;;;;;2.30;2.10;;;13.10;63.80;;;12.87;43.15;95809.06;4868116;29;20217;-86
2022/01/14 13:06:54;;;;;;;2.95;2.22;;;13.20;63.80;;;12.97;44.13;95806.16;4866743;29;20239;-85
2022/01/14 13:09:28;;;;;;;2.72;2.20;;;13.30;63.70;;;13.01;42.05;95809.22;4865907;29;20244;-86
2022/01/14 13:12:10;;;;;;;4.13;2.25;;;13.40;62.70;;;13.01;42.40;95815.31;4865148;29;20194;-85
2022/01/14 13:15:17;;;;;;;3.25;2.33;;;13.50;62.60;;;13.04;42.78;95814.13;4868902;29;20268;-85
2022/01/14 13:17:42;;;;;;;3.40;2.72;;;13.50;62.70;;;13.11;43.44;95804.50;4870874;29;20217;-84
2022/01/14 13:20:15;;;;;;;3.20;2.60;;;13.50;63.00;;;13.16;43.33;95807.38;4852944;29;20228;-84
2022/01/14 13:22:46;;;;;;;3.17;2.83;;;13.60;62.60;;;13.24;42.68;95801.19;4886774;29;20217;-84
2022/01/14 13:25:23;;;;;;;3.67;2.70;;;13.70;63.10;;;13.33;42.93;95807.97;4884601;29;20229;-85
2022/01/14 13:27:59;;;;;;;3.63;2.40;;;13.80;62.70;;;13.37;42.96;95811.84;4847585;29;20204;-85
2022/01/14 13:30:33;;;;;;;2.78;2.50;;;13.90;62.80;;;13.43;43.54;95811.13;4853125;29;20299;-83